createdAt,value
2018-02-06T00:01:54.281Z,75.24
2018-02-06T00:02:54.242Z,75.24
2018-02-06T00:04:47.599Z,75.34
2018-02-06T00:05:47.543Z,74.96
2018-02-06T00:07:43.388Z,75.43
2018-02-06T00:08:43.339Z,74.87
2018-02-06T00:10:36.688Z,75.05
2018-02-06T00:11:36.637Z,74.58
2018-02-06T00:13:30.000Z,74.02
2018-02-06T00:14:29.953Z,74.21
2018-02-06T00:16:23.295Z,74.58
2018-02-06T00:17:23.249Z,74.49
2018-02-06T00:19:16.591Z,75.05
2018-02-06T00:20:16.547Z,74.77
2018-02-06T00:22:12.394Z,75.43
2018-02-06T00:23:12.340Z,75.24
2018-02-06T00:25:08.218Z,75.05
2018-02-06T00:26:08.164Z,75.24
2018-02-06T00:28:01.557Z,75.34
2018-02-06T00:29:01.518Z,75.15
2018-02-06T00:30:54.882Z,74.87
2018-02-06T00:31:54.812Z,74.77
2018-02-06T00:33:48.993Z,75.24
2018-02-06T00:34:48.958Z,75.71
2018-02-06T00:36:42.291Z,75.34
2018-02-06T00:37:42.253Z,75.34
2018-02-06T00:39:35.609Z,75.71
2018-02-06T00:40:35.561Z,75.24
2018-02-06T00:42:28.933Z,74.87
2018-02-06T00:43:28.850Z,75.15
2018-02-06T00:45:22.207Z,74.87
2018-02-06T00:46:22.141Z,74.96
2018-02-06T00:48:15.493Z,74.77
2018-02-06T00:49:15.446Z,74.68
2018-02-06T00:51:09.635Z,75.15
2018-02-06T00:52:09.586Z,75.24
2018-02-06T00:54:02.987Z,75.15
2018-02-06T00:55:02.931Z,75.53
2018-02-06T00:56:56.255Z,75.71
2018-02-06T00:57:56.202Z,75.24
2018-02-06T00:59:52.068Z,75.90
2018-02-06T01:00:52.019Z,75.81
2018-02-06T01:02:44.883Z,75.71
2018-02-06T01:03:44.825Z,75.15
2018-02-06T01:05:40.672Z,76.09
2018-02-06T01:06:40.619Z,75.71
2018-02-06T01:08:35.020Z,76.28
2018-02-06T01:09:34.962Z,76.57
2018-02-06T01:11:28.265Z,76.47
2018-02-06T01:12:28.218Z,76.19
2018-02-06T01:14:21.578Z,77.04
2018-02-06T01:15:21.529Z,76.38
2018-02-06T01:17:14.886Z,75.71
2018-02-06T01:18:14.832Z,75.53
2018-02-06T01:20:10.686Z,75.90
2018-02-06T01:21:10.652Z,76.28
2018-02-06T01:23:07.301Z,76.28
2018-02-06T01:24:07.255Z,76.47
2018-02-06T01:26:00.626Z,75.90
2018-02-06T01:27:00.573Z,75.90
2018-02-06T01:28:53.944Z,75.71
2018-02-06T01:29:53.890Z,75.81
2018-02-06T01:31:47.239Z,75.34
2018-02-06T01:32:47.187Z,75.34
2018-02-06T01:34:40.541Z,75.53
2018-02-06T01:35:40.494Z,75.24
2018-02-06T01:37:33.834Z,75.62
2018-02-06T01:38:33.789Z,75.43
2018-02-06T01:40:27.163Z,75.15
2018-02-06T01:41:27.083Z,75.15
2018-02-06T01:43:20.435Z,74.68
2018-02-06T01:44:20.388Z,74.68
2018-02-06T01:46:13.741Z,74.96
2018-02-06T01:47:13.699Z,74.40
2018-02-06T01:49:07.091Z,73.60
2018-02-06T01:50:06.994Z,73.74
2018-02-06T01:52:00.345Z,73.51
2018-02-06T01:53:00.288Z,73.13
2018-02-06T01:54:53.642Z,73.13
2018-02-06T01:55:53.584Z,73.41
2018-02-06T01:57:46.930Z,74.55
2018-02-06T01:58:46.882Z,74.83
2018-02-06T02:00:40.234Z,75.21
2018-02-06T02:01:40.194Z,75.02
2018-02-06T02:03:33.552Z,75.87
2018-02-06T02:04:33.491Z,75.68
2018-02-06T02:06:26.835Z,75.59
2018-02-06T02:07:26.792Z,75.68
2018-02-06T02:09:20.149Z,75.40
2018-02-06T02:10:20.096Z,75.59
2018-02-06T02:12:13.425Z,75.40
2018-02-06T02:13:13.382Z,75.40
2018-02-06T02:15:06.726Z,75.30
2018-02-06T02:16:06.680Z,75.59
2018-02-06T02:18:00.037Z,75.30
2018-02-06T02:18:59.991Z,75.49
2018-02-06T02:19:59.963Z,75.30
2018-02-06T02:20:59.929Z,76.06
2018-02-06T02:21:59.906Z,75.21
2018-02-06T02:22:59.867Z,75.02
2018-02-06T02:23:59.838Z,75.02
2018-02-06T02:24:59.810Z,75.96
2018-02-06T02:25:59.788Z,75.68
2018-02-06T02:26:59.749Z,76.06
2018-02-06T02:27:59.725Z,76.25
2018-02-06T02:28:59.693Z,76.06
2018-02-06T02:29:59.667Z,76.25
2018-02-06T02:30:59.633Z,76.15
2018-02-06T02:31:59.604Z,76.06
2018-02-06T02:32:59.576Z,75.68
2018-02-06T02:33:59.544Z,75.96
2018-02-06T02:34:59.519Z,75.68
2018-02-06T02:35:59.498Z,75.02
2018-02-06T02:36:59.458Z,74.83
2018-02-06T02:37:59.437Z,74.83
2018-02-06T02:38:59.424Z,74.45
2018-02-06T02:39:59.372Z,74.45
2018-02-06T02:40:59.345Z,74.45
2018-02-06T04:39:22.230Z,74.26
2018-02-06T04:40:22.178Z,74.45
2018-02-06T04:42:15.553Z,73.88
2018-02-06T04:43:15.502Z,74.26
2018-02-06T04:45:08.851Z,74.07
2018-02-06T04:46:08.808Z,74.26
2018-02-06T04:48:02.158Z,73.79
2018-02-06T04:49:02.106Z,73.41
2018-02-06T04:50:56.260Z,73.32
2018-02-06T04:51:56.209Z,73.69
2018-02-06T04:53:50.382Z,73.13
2018-02-06T04:54:50.324Z,73.32
2018-02-06T04:56:43.672Z,73.79
2018-02-06T04:57:43.629Z,73.88
2018-02-06T04:59:36.967Z,73.79
2018-02-06T05:00:36.913Z,73.60
2018-02-06T05:02:30.255Z,73.03
2018-02-06T05:03:30.212Z,73.28
2018-02-06T05:05:23.557Z,73.00
2018-02-06T05:06:23.508Z,73.00
2018-02-06T05:08:16.894Z,73.10
2018-02-06T05:09:16.842Z,73.28
2018-02-06T05:11:11.193Z,73.10
2018-02-06T05:12:11.140Z,73.57
2018-02-06T05:14:04.539Z,72.91
2018-02-06T05:15:04.436Z,73.10
2018-02-06T05:16:57.791Z,73.00
2018-02-06T05:17:57.738Z,73.19
2018-02-06T05:19:51.071Z,73.10
2018-02-06T05:20:51.030Z,73.47
2018-02-06T05:22:46.871Z,72.91
2018-02-06T05:23:46.827Z,73.10
2018-02-06T05:25:40.172Z,73.00
2018-02-06T05:26:40.131Z,73.10
2018-02-06T05:28:33.465Z,73.10
2018-02-06T05:29:33.416Z,73.28
2018-02-06T05:31:26.771Z,73.19
2018-02-06T05:32:26.718Z,73.19
2018-02-06T05:34:20.955Z,73.00
2018-02-06T05:35:20.911Z,73.00
2018-02-06T05:37:14.259Z,73.66
2018-02-06T05:38:14.211Z,73.00
2018-02-06T05:40:07.572Z,73.28
2018-02-06T05:41:07.552Z,73.10
2018-02-06T05:43:00.853Z,73.66
2018-02-06T05:44:00.807Z,72.91
2018-02-06T05:45:54.153Z,73.47
2018-02-06T05:46:54.107Z,73.66
2018-02-06T05:48:47.468Z,73.85
2018-02-06T05:49:47.415Z,73.66
2018-02-06T05:51:40.765Z,73.66
2018-02-06T05:52:40.705Z,73.47
2018-02-06T05:54:34.040Z,73.85
2018-02-06T05:55:33.992Z,73.38
2018-02-06T05:57:27.350Z,73.19
2018-02-06T05:58:27.300Z,72.53
2018-02-06T06:00:20.690Z,72.81
2018-02-06T06:01:20.595Z,73.00
2018-02-06T06:03:13.938Z,73.10
2018-02-06T06:04:13.893Z,73.85
2018-02-06T06:06:07.237Z,74.51
2018-02-06T06:07:07.190Z,74.22
2018-02-06T06:08:07.164Z,74.22
2018-02-06T06:09:07.131Z,74.13
2018-02-06T06:10:07.112Z,73.94
2018-02-06T06:11:07.065Z,73.47
2018-02-06T06:12:07.038Z,73.57
2018-02-06T06:13:07.009Z,73.57
2018-02-06T06:14:06.988Z,73.47
2018-02-06T06:15:06.952Z,73.57
2018-02-06T06:16:06.917Z,73.66
2018-02-06T06:17:06.893Z,74.22
2018-02-06T06:18:06.859Z,74.51
2018-02-06T06:19:06.833Z,74.41
2018-02-06T06:20:06.806Z,74.79
2018-02-06T06:21:06.779Z,74.69
2018-02-06T06:22:06.744Z,74.79
2018-02-06T06:23:06.717Z,74.60
2018-02-06T06:24:06.709Z,74.69
2018-02-06T06:25:06.713Z,74.69
2018-02-06T06:26:06.631Z,74.22
2018-02-06T06:27:06.595Z,73.75
2018-02-06T06:28:06.572Z,73.47
2018-02-06T06:29:06.536Z,73.10
2018-02-06T06:30:06.506Z,73.10
2018-02-06T06:31:06.476Z,73.10
2018-02-06T06:32:06.445Z,73.00
2018-02-06T06:33:06.421Z,73.47
2018-02-06T06:34:06.387Z,72.81
2018-02-06T06:35:06.363Z,72.91
2018-02-06T06:36:06.327Z,73.00
2018-02-06T06:37:06.299Z,73.00
2018-02-06T06:38:06.269Z,72.81
2018-02-06T06:39:06.235Z,72.91
2018-02-06T06:40:06.209Z,72.34
2018-02-06T06:41:06.179Z,72.44
2018-02-06T06:42:06.148Z,72.25
2018-02-06T06:43:06.120Z,72.91
2018-02-06T06:44:06.084Z,73.19
2018-02-06T06:45:06.060Z,73.38
2018-02-06T06:46:06.032Z,73.19
2018-02-06T06:47:06.002Z,73.66
2018-02-06T06:48:05.971Z,73.75
2018-02-06T06:49:05.958Z,73.85
2018-02-06T06:50:05.912Z,73.75
2018-02-06T06:51:05.884Z,73.57
2018-02-06T06:52:05.858Z,73.38
2018-02-06T06:53:05.819Z,72.91
2018-02-06T06:54:05.794Z,73.00
2018-02-06T06:55:05.785Z,72.91
2018-02-06T06:56:05.736Z,72.91
2018-02-06T06:57:05.702Z,73.19
2018-02-06T06:58:05.667Z,73.28
2018-02-06T06:59:05.644Z,73.47
2018-02-06T07:00:05.628Z,73.00
2018-02-06T07:01:05.584Z,73.19
2018-02-06T07:02:05.556Z,73.00
2018-02-06T07:03:05.524Z,73.38
2018-02-06T07:04:05.498Z,72.53
2018-02-06T07:05:05.464Z,73.00
2018-02-06T07:06:05.439Z,72.25
2018-02-06T07:07:05.405Z,72.91
2018-02-06T07:08:05.376Z,72.91
2018-02-06T07:09:05.346Z,72.72
2018-02-06T07:10:05.314Z,72.53
2018-02-06T07:11:05.287Z,71.87
2018-02-06T07:12:05.254Z,72.25
2018-02-06T07:13:05.229Z,71.96
2018-02-06T07:14:05.194Z,71.77
2018-02-06T07:15:05.163Z,71.96
2018-02-06T07:16:05.139Z,72.15
2018-02-06T07:17:05.108Z,71.77
2018-02-06T07:18:05.080Z,72.53
2018-02-06T07:19:05.043Z,72.53
2018-02-06T07:20:05.022Z,72.44
2018-02-06T07:21:04.984Z,72.34
2018-02-06T07:22:04.964Z,72.62
2018-02-06T07:23:04.930Z,72.09
2018-02-06T07:24:04.908Z,71.91
2018-02-06T07:25:04.871Z,71.91
2018-02-06T07:26:04.839Z,72.47
2018-02-06T07:27:04.812Z,72.66
2018-02-06T07:28:04.787Z,72.00
2018-02-06T07:29:04.835Z,71.81
2018-02-06T07:30:04.722Z,71.72
2018-02-06T07:31:04.712Z,72.19
2018-02-06T07:32:04.667Z,71.62
2018-02-06T07:33:04.631Z,71.72
2018-02-06T07:34:04.603Z,71.43
2018-02-06T07:35:04.572Z,71.15
2018-02-06T07:36:04.550Z,71.53
2018-02-06T07:37:04.518Z,71.06
2018-02-06T07:38:04.485Z,70.87
2018-02-06T07:39:04.450Z,71.06
2018-02-06T07:40:04.421Z,71.06
2018-02-06T07:41:04.395Z,70.39
2018-02-06T07:42:04.363Z,70.87
2018-02-06T07:43:04.335Z,70.68
2018-02-06T07:44:04.306Z,70.77
2018-02-06T07:45:04.274Z,70.49
2018-02-06T07:46:04.257Z,70.49
2018-02-06T07:47:04.218Z,70.49
2018-02-06T07:48:04.192Z,70.49
2018-02-06T07:49:04.164Z,70.30
2018-02-06T07:50:04.131Z,70.39
2018-02-06T07:51:04.107Z,70.49
2018-02-06T07:52:04.073Z,70.96
2018-02-06T07:53:04.048Z,70.30
2018-02-06T07:54:04.012Z,70.49
2018-02-06T07:55:03.985Z,70.02
2018-02-06T07:56:03.951Z,70.58
2018-02-06T07:57:03.925Z,70.02
2018-02-06T07:58:03.894Z,70.30
2018-02-06T07:59:03.865Z,70.11
2018-02-06T08:00:03.863Z,70.02
2018-02-06T08:01:03.809Z,70.77
2018-02-06T08:02:03.779Z,70.68
2018-02-06T08:03:03.751Z,70.49
2018-02-06T08:04:03.720Z,70.68
2018-02-06T08:05:03.691Z,70.58
2018-02-06T08:06:03.671Z,70.96
2018-02-06T08:07:03.632Z,70.30
2018-02-06T08:08:03.604Z,70.39
2018-02-06T08:09:03.570Z,70.49
2018-02-06T08:10:03.547Z,70.53
2018-02-06T08:11:03.512Z,70.81
2018-02-06T08:12:03.484Z,70.81
2018-02-06T08:13:03.456Z,69.58
2018-02-06T08:14:03.428Z,69.96
2018-02-06T08:15:03.399Z,69.96
2018-02-06T08:16:03.380Z,69.86
2018-02-06T08:17:03.341Z,69.39
2018-02-06T08:18:03.309Z,69.67
2018-02-06T08:19:03.280Z,69.49
2018-02-06T08:20:03.255Z,69.67
2018-02-06T08:21:03.224Z,69.30
2018-02-06T08:22:03.217Z,69.01
2018-02-06T08:23:03.169Z,69.20
2018-02-06T08:24:03.141Z,68.63
2018-02-06T08:25:03.107Z,69.01
2018-02-06T08:26:03.115Z,68.63
2018-02-06T08:27:03.046Z,69.01
2018-02-06T08:28:03.018Z,68.82
2018-02-06T08:29:02.998Z,68.35
2018-02-06T08:30:02.961Z,68.54
2018-02-06T08:31:02.939Z,68.35
2018-02-06T08:32:02.906Z,68.54
2018-02-06T08:33:02.923Z,68.82
2018-02-06T08:34:02.850Z,68.63
2018-02-06T08:35:02.826Z,68.63
2018-02-06T08:36:17.297Z,68.63
2018-02-06T08:37:02.761Z,68.35
2018-02-06T08:38:02.732Z,68.16
2018-02-06T08:39:02.707Z,68.63
2018-02-06T08:40:02.682Z,69.11
2018-02-06T08:41:02.648Z,68.63
2018-02-06T08:42:02.625Z,69.01
2018-02-06T08:43:02.590Z,68.92
2018-02-06T08:44:02.565Z,68.92
2018-02-06T08:45:02.535Z,68.35
2018-02-06T08:46:02.506Z,68.54
2018-02-06T08:47:02.480Z,68.76
2018-02-06T08:48:02.460Z,68.76
2018-02-06T08:49:02.421Z,68.67
2018-02-06T08:50:02.395Z,68.39
2018-02-06T08:51:02.363Z,67.63
2018-02-06T08:52:02.344Z,68.01
2018-02-06T08:53:02.305Z,67.82
2018-02-06T08:54:02.275Z,67.54
2018-02-06T08:55:02.260Z,67.16
2018-02-06T08:56:02.219Z,67.25
2018-02-06T08:57:02.191Z,66.31
2018-02-06T08:58:02.167Z,66.31
2018-02-06T08:59:02.132Z,66.12
2018-02-06T09:00:02.107Z,66.59
2018-02-06T09:01:02.077Z,65.93
2018-02-06T09:02:02.050Z,66.31
2018-02-06T09:03:02.054Z,66.69
2018-02-06T09:04:01.994Z,67.07
2018-02-06T09:05:02.009Z,66.03
2018-02-06T09:06:01.935Z,65.78
2018-02-06T09:07:01.910Z,65.87
2018-02-06T09:08:01.883Z,65.78
2018-02-06T09:09:01.856Z,65.87
2018-02-06T09:10:01.826Z,65.87
2018-02-06T09:11:01.799Z,65.87
2018-02-06T09:12:01.772Z,65.97
2018-02-06T09:13:01.742Z,66.06
2018-02-06T09:14:01.713Z,66.72
2018-02-06T09:15:01.686Z,65.78
2018-02-06T09:16:01.665Z,66.35
2018-02-06T09:17:01.632Z,65.97
2018-02-06T09:18:01.606Z,65.30
2018-02-06T09:19:01.575Z,65.21
2018-02-06T09:20:01.544Z,65.02
2018-02-06T09:21:01.524Z,65.78
2018-02-06T09:22:01.496Z,65.49
2018-02-06T09:23:01.466Z,65.49
2018-02-06T09:24:01.441Z,65.40
2018-02-06T09:25:01.404Z,64.64
2018-02-06T09:26:01.398Z,64.73
2018-02-06T09:27:01.349Z,65.02
2018-02-06T09:28:01.324Z,65.40
2018-02-06T09:29:01.297Z,64.92
2018-02-06T09:30:01.298Z,64.36
2018-02-06T09:31:01.249Z,64.36
2018-02-06T09:32:01.213Z,64.26
2018-02-06T09:33:01.190Z,64.83
2018-02-06T09:34:01.155Z,65.02
2018-02-06T09:35:01.131Z,65.59
2018-02-06T09:36:01.101Z,65.59
2018-02-06T09:37:01.114Z,65.87
2018-02-06T09:38:01.086Z,65.78
2018-02-06T09:39:01.020Z,65.68
2018-02-06T09:40:00.989Z,65.62
2018-02-06T09:41:00.961Z,65.24
2018-02-06T09:42:00.937Z,65.53
2018-02-06T09:43:00.906Z,65.05
2018-02-06T09:44:00.877Z,65.24
2018-02-06T09:45:00.861Z,64.58
2018-02-06T09:46:00.829Z,64.67
2018-02-06T09:47:00.798Z,64.39
2018-02-06T09:48:00.770Z,64.96
2018-02-06T09:49:00.740Z,64.29
2018-02-06T09:50:00.713Z,64.39
2018-02-06T09:51:00.684Z,64.67
2018-02-06T09:52:00.665Z,63.82
2018-02-06T09:53:00.632Z,63.92
2018-02-06T09:54:00.608Z,64.29
2018-02-06T09:55:00.622Z,64.20
2018-02-06T09:56:00.549Z,64.11
2018-02-06T09:57:00.524Z,63.54
2018-02-06T09:58:00.496Z,64.01
2018-02-06T09:59:00.473Z,63.95
2018-02-06T10:00:00.445Z,64.04
2018-02-06T10:01:00.416Z,63.57
2018-02-06T10:02:00.386Z,63.57
2018-02-06T10:03:00.358Z,63.48
2018-02-06T10:04:00.329Z,63.48
2018-02-06T10:05:00.304Z,63.95
2018-02-06T10:06:00.278Z,64.04
2018-02-06T10:07:21.285Z,64.33
2018-02-06T10:08:00.221Z,63.85
2018-02-06T10:09:00.196Z,63.67
2018-02-06T10:10:00.218Z,63.29
2018-02-06T10:11:00.140Z,63.29
2018-02-06T10:12:00.158Z,63.10
2018-02-06T10:13:00.088Z,63.57
2018-02-06T10:14:00.061Z,63.20
2018-02-06T10:15:00.037Z,63.29
2018-02-06T10:16:00.011Z,62.82
2018-02-06T10:16:59.979Z,62.63
2018-02-06T10:17:59.965Z,63.20
2018-02-06T10:18:59.922Z,62.91
2018-02-06T10:19:59.899Z,63.01
2018-02-06T10:20:59.878Z,63.10
2018-02-06T10:21:59.845Z,62.63
2018-02-06T10:22:59.818Z,62.53
2018-02-06T10:23:59.809Z,62.28
2018-02-06T10:24:59.761Z,62.18
2018-02-06T10:25:59.739Z,62.18
2018-02-06T10:26:59.716Z,61.71
2018-02-06T10:27:59.685Z,61.61
2018-02-06T10:28:59.680Z,61.71
2018-02-06T10:29:59.631Z,61.61
2018-02-06T10:30:59.602Z,61.52
2018-02-06T10:31:59.574Z,61.71
2018-02-06T10:32:59.605Z,61.61
2018-02-06T10:33:59.538Z,61.52
2018-02-06T10:34:59.495Z,61.33
2018-02-06T10:35:59.467Z,61.43
2018-02-06T10:36:59.440Z,61.52
2018-02-06T10:37:59.420Z,61.33
2018-02-06T10:38:59.389Z,60.96
2018-02-06T10:39:59.365Z,61.18
2018-02-06T10:40:59.344Z,61.27
2018-02-06T10:41:59.309Z,60.89
2018-02-06T10:42:59.284Z,60.80
2018-02-06T10:43:59.265Z,60.70
2018-02-06T10:44:59.230Z,60.70
2018-02-06T10:45:59.207Z,59.75
2018-02-06T10:46:59.222Z,59.94
2018-02-06T10:47:59.153Z,59.94
2018-02-06T10:48:59.128Z,60.13
2018-02-06T10:49:59.104Z,59.94
2018-02-06T10:50:59.076Z,59.47
2018-02-06T10:51:59.055Z,59.84
2018-02-06T10:52:59.027Z,59.75
2018-02-06T10:53:58.992Z,59.56
2018-02-06T10:54:58.968Z,59.00
2018-02-06T10:55:58.941Z,59.47
2018-02-06T10:56:58.920Z,58.90
2018-02-06T10:57:58.887Z,58.90
2018-02-06T10:58:58.885Z,59.00
2018-02-06T10:59:58.839Z,59.19
2018-02-06T11:00:58.811Z,59.75
2018-02-06T11:01:58.783Z,59.84
2018-02-06T11:02:58.758Z,59.00
2018-02-06T11:03:58.746Z,58.81
2018-02-06T11:04:58.708Z,59.28
2018-02-06T11:05:58.682Z,59.56
2018-02-06T11:06:58.668Z,59.75
2018-02-06T11:08:19.632Z,59.84
2018-02-06T11:08:58.600Z,60.48
2018-02-06T11:09:58.575Z,60.58
2018-02-06T11:10:58.559Z,60.48
2018-02-06T11:11:58.519Z,61.15
2018-02-06T11:12:58.498Z,61.05
2018-02-06T11:13:58.477Z,61.24
2018-02-06T11:14:58.452Z,61.24
2018-02-06T11:15:58.413Z,61.43
2018-02-06T11:16:58.396Z,61.24
2018-02-06T11:17:58.356Z,61.15
2018-02-06T11:18:58.338Z,61.05
2018-02-06T11:19:58.364Z,61.05
2018-02-06T11:20:58.289Z,61.15
2018-02-06T11:21:58.302Z,61.15
2018-02-06T11:22:58.234Z,61.15
2018-02-06T11:23:58.224Z,60.86
2018-02-06T11:24:58.173Z,60.70
2018-02-06T11:25:58.149Z,60.32
2018-02-06T11:26:58.129Z,60.51
2018-02-06T11:27:58.094Z,60.03
2018-02-06T11:28:58.071Z,59.94
2018-02-06T11:29:58.047Z,59.38
2018-02-06T11:30:58.018Z,59.47
2018-02-06T11:31:57.986Z,59.75
2018-02-06T11:32:57.960Z,59.56
2018-02-06T11:33:57.933Z,59.28
2018-02-06T11:34:57.906Z,59.38
2018-02-06T11:35:57.880Z,58.43
2018-02-06T11:36:57.859Z,58.55
2018-02-06T11:37:57.826Z,58.55
2018-02-06T11:38:57.804Z,58.84
2018-02-06T11:39:57.778Z,58.74
2018-02-06T11:40:57.748Z,58.93
2018-02-06T11:41:57.719Z,58.45
2018-02-06T11:42:57.698Z,58.26
2018-02-06T11:43:57.668Z,58.14
2018-02-06T11:44:57.645Z,58.71
2018-02-06T11:45:57.617Z,58.24
2018-02-06T11:46:57.596Z,58.24
2018-02-06T11:47:57.565Z,58.81
2018-02-06T11:48:57.536Z,58.90
2018-02-06T11:49:57.509Z,59.09
2018-02-06T11:50:57.486Z,59.47
2018-02-06T11:51:57.462Z,59.47
2018-02-06T11:52:57.430Z,59.91
2018-02-06T11:53:57.404Z,60.19
2018-02-06T11:54:57.380Z,60.58
2018-02-06T11:55:57.381Z,60.86
2018-02-06T11:56:57.379Z,60.67
2018-02-06T11:57:57.295Z,60.58
2018-02-06T11:58:57.269Z,61.61
2018-02-06T11:59:57.242Z,61.52
2018-02-06T12:00:57.218Z,61.71
2018-02-06T12:01:57.190Z,61.52
2018-02-06T12:02:57.160Z,61.71
2018-02-06T12:03:57.136Z,62.28
2018-02-06T12:04:57.111Z,62.37
2018-02-06T12:05:57.080Z,62.18
2018-02-06T12:06:57.053Z,62.37
2018-02-06T12:07:57.030Z,62.94
2018-02-06T12:08:57.005Z,63.13
2018-02-06T12:09:56.975Z,63.04
2018-02-06T12:10:56.945Z,63.13
2018-02-06T12:11:56.918Z,63.60
2018-02-06T12:12:56.894Z,63.60
2018-02-06T12:13:56.866Z,63.32
2018-02-06T12:14:56.837Z,63.32
2018-02-06T12:15:56.810Z,63.79
2018-02-06T12:16:56.790Z,63.60
2018-02-06T12:17:56.756Z,63.89
2018-02-06T12:18:56.732Z,63.98
2018-02-06T12:19:56.702Z,63.89
2018-02-06T12:20:56.676Z,63.79
2018-02-06T12:21:56.665Z,64.26
2018-02-06T12:22:56.621Z,63.98
2018-02-06T12:23:56.605Z,63.98
2018-02-06T12:24:56.573Z,64.17
2018-02-06T12:25:56.542Z,64.26
2018-02-06T12:26:56.524Z,64.07
2018-02-06T12:27:56.494Z,64.17
2018-02-06T12:28:56.463Z,64.17
2018-02-06T12:29:56.440Z,64.17
2018-02-06T12:30:56.469Z,63.98
2018-02-06T12:31:56.380Z,64.17
2018-02-06T12:32:56.365Z,63.98
2018-02-06T12:33:56.334Z,64.17
2018-02-06T12:34:56.297Z,64.26
2018-02-06T12:35:56.276Z,64.93
2018-02-06T12:36:56.247Z,64.61
2018-02-06T12:37:56.218Z,65.28
2018-02-06T12:38:56.197Z,64.61
2018-02-06T12:39:56.174Z,65.09
2018-02-06T12:40:56.137Z,65.37
2018-02-06T12:41:56.112Z,65.37
2018-02-06T12:42:56.091Z,65.28
2018-02-06T12:43:56.053Z,65.94
2018-02-06T12:44:56.032Z,65.75
2018-02-06T12:45:56.009Z,65.84
2018-02-06T12:46:55.971Z,66.03
2018-02-06T12:47:55.958Z,66.16
2018-02-06T12:48:55.929Z,66.16
2018-02-06T12:49:55.888Z,66.35
2018-02-06T12:50:55.875Z,66.41
2018-02-06T12:51:55.838Z,66.06
2018-02-06T12:52:55.809Z,65.50
2018-02-06T12:53:55.776Z,65.69
2018-02-06T12:54:55.753Z,66.06
2018-02-06T12:55:55.724Z,65.88
2018-02-06T12:56:55.704Z,65.21
2018-02-06T12:57:55.684Z,65.31
2018-02-06T12:58:55.650Z,65.40
2018-02-06T12:59:55.620Z,64.83
2018-02-06T13:00:55.599Z,64.74
2018-02-06T13:01:55.562Z,65.02
2018-02-06T13:02:55.537Z,64.45
2018-02-06T13:03:55.510Z,64.07
2018-02-06T13:04:55.539Z,64.74
2018-02-06T13:05:55.458Z,64.26
2018-02-06T13:06:55.439Z,65.02
2018-02-06T13:07:55.403Z,64.55
2018-02-06T13:08:55.421Z,64.55
2018-02-06T13:09:55.350Z,64.83
2018-02-06T13:10:55.319Z,64.26
2018-02-06T13:11:55.294Z,64.07
2018-02-06T13:12:55.267Z,64.17
2018-02-06T13:13:55.245Z,63.98
2018-02-06T13:14:55.213Z,64.17
2018-02-06T13:15:55.188Z,64.26
2018-02-06T13:16:55.163Z,64.17
2018-02-06T13:17:55.130Z,64.20
2018-02-06T13:18:55.107Z,63.89
2018-02-06T13:19:55.076Z,64.26
2018-02-06T13:20:55.048Z,64.26
2018-02-06T13:21:55.027Z,63.89
2018-02-06T13:22:54.997Z,63.89
2018-02-06T13:23:54.965Z,65.02
2018-02-06T13:24:54.940Z,64.36
2018-02-06T13:25:54.914Z,64.07
2018-02-06T13:26:54.888Z,64.17
2018-02-06T13:27:54.862Z,64.26
2018-02-06T13:28:54.835Z,64.26
2018-02-06T13:29:54.830Z,64.26
2018-02-06T13:30:54.777Z,63.98
2018-02-06T13:31:54.750Z,63.98
2018-02-06T13:32:54.723Z,64.07
2018-02-06T13:33:54.711Z,64.07
2018-02-06T13:34:54.670Z,63.98
2018-02-06T13:35:54.642Z,63.79
2018-02-06T13:36:54.622Z,64.64
2018-02-06T13:37:54.626Z,64.64
2018-02-06T13:38:54.595Z,64.55
2018-02-06T13:39:54.540Z,64.26
2018-02-06T13:40:54.509Z,64.17
2018-02-06T13:41:54.481Z,63.89
2018-02-06T13:42:54.462Z,64.17
2018-02-06T13:43:54.436Z,64.26
2018-02-06T13:44:54.401Z,64.83
2018-02-06T13:45:54.410Z,64.55
2018-02-06T13:46:54.359Z,64.55
2018-02-06T13:47:54.321Z,64.45
2018-02-06T13:48:54.299Z,64.55
2018-02-06T13:49:54.274Z,65.12
2018-02-06T13:50:54.237Z,64.45
2018-02-06T13:51:54.212Z,65.40
2018-02-06T13:52:54.189Z,65.12
2018-02-06T13:53:54.158Z,65.15
2018-02-06T13:54:54.131Z,64.77
2018-02-06T13:55:54.104Z,64.01
2018-02-06T13:56:54.103Z,63.92
2018-02-06T13:57:54.050Z,63.64
2018-02-06T13:58:54.023Z,62.97
2018-02-06T13:59:53.998Z,63.35
2018-02-06T14:00:53.973Z,63.73
2018-02-06T14:01:53.948Z,63.16
2018-02-06T14:02:53.915Z,63.54
2018-02-06T14:03:53.888Z,62.97
2018-02-06T14:04:53.871Z,62.50
2018-02-06T14:05:53.834Z,62.43
2018-02-06T14:06:53.807Z,62.34
2018-02-06T14:07:53.784Z,62.05
2018-02-06T14:08:53.760Z,61.65
2018-02-06T14:09:53.732Z,62.31
2018-02-06T14:10:53.703Z,62.40
2018-02-06T14:11:53.695Z,62.02
2018-02-06T14:12:53.647Z,62.02
2018-02-06T14:13:53.674Z,62.31
2018-02-06T14:14:53.593Z,62.21
2018-02-06T14:15:53.570Z,62.59
2018-02-06T14:16:53.543Z,62.21
2018-02-06T14:17:53.514Z,62.31
2018-02-06T14:18:53.491Z,61.83
2018-02-06T14:19:53.469Z,61.83
2018-02-06T14:20:53.435Z,62.12
2018-02-06T14:21:53.410Z,62.88
2018-02-06T14:22:53.383Z,62.78
2018-02-06T14:23:53.356Z,63.16
2018-02-06T14:24:53.330Z,62.78
2018-02-06T14:25:53.304Z,63.16
2018-02-06T14:26:53.273Z,63.16
2018-02-06T14:27:53.248Z,63.82
2018-02-06T14:28:53.221Z,63.82
2018-02-06T14:29:53.196Z,63.92
2018-02-06T14:30:53.167Z,64.11
2018-02-06T14:31:53.141Z,63.54
2018-02-06T14:32:53.113Z,63.92
2018-02-06T14:33:53.086Z,63.73
2018-02-06T14:34:53.093Z,63.92
2018-02-06T14:35:53.034Z,63.54
2018-02-06T14:36:53.010Z,64.01
2018-02-06T14:37:52.981Z,64.30
2018-02-06T14:39:13.958Z,64.01
2018-02-06T14:39:52.937Z,64.01
2018-02-06T14:40:52.905Z,63.82
2018-02-06T14:41:52.870Z,63.82
2018-02-06T14:42:52.858Z,63.92
2018-02-06T14:43:52.826Z,63.64
2018-02-06T14:44:52.797Z,63.07
2018-02-06T14:45:52.766Z,63.54
2018-02-06T14:46:52.753Z,62.88
2018-02-06T14:47:52.757Z,62.78
2018-02-06T14:48:52.687Z,62.97
2018-02-06T14:49:52.660Z,62.88
2018-02-06T14:50:52.635Z,63.16
2018-02-06T14:51:52.605Z,63.35
2018-02-06T14:52:52.581Z,63.07
2018-02-06T14:53:52.550Z,63.16
2018-02-06T14:54:52.526Z,62.78
2018-02-06T14:55:52.500Z,63.07
2018-02-06T14:56:52.473Z,63.07
2018-02-06T14:57:52.446Z,63.16
2018-02-06T14:58:52.423Z,62.97
2018-02-06T14:59:52.392Z,62.88
2018-02-06T15:00:52.367Z,63.07
2018-02-06T15:01:52.338Z,63.26
2018-02-06T15:02:52.313Z,63.73
2018-02-06T15:03:52.286Z,63.73
2018-02-06T15:04:52.279Z,63.45
2018-02-06T15:05:52.234Z,63.82
2018-02-06T15:06:52.209Z,63.73
2018-02-06T15:07:52.180Z,63.82
2018-02-06T15:08:52.165Z,63.73
2018-02-06T15:09:52.123Z,63.98
2018-02-06T15:10:52.101Z,64.17
2018-02-06T15:11:52.076Z,64.07
2018-02-06T15:12:52.047Z,63.98
2018-02-06T15:13:52.020Z,64.07
2018-02-06T15:14:51.993Z,63.98
2018-02-06T15:15:51.964Z,64.07
2018-02-06T15:16:51.937Z,64.83
2018-02-06T15:17:51.922Z,64.64
2018-02-06T15:18:51.881Z,64.83
2018-02-06T15:19:51.862Z,65.21
2018-02-06T15:20:51.827Z,65.50
2018-02-06T15:21:51.823Z,65.50
2018-02-06T15:22:51.818Z,66.06
2018-02-06T15:23:51.744Z,65.59
2018-02-06T15:24:51.729Z,65.59
2018-02-06T15:25:51.696Z,65.78
2018-02-06T15:26:51.665Z,66.35
2018-02-06T15:27:51.652Z,65.59
2018-02-06T15:28:51.613Z,65.59
2018-02-06T15:29:51.586Z,65.88
2018-02-06T15:30:51.571Z,65.59
2018-02-06T15:31:51.530Z,65.59
2018-02-06T15:32:51.507Z,65.69
2018-02-06T15:33:51.484Z,65.66
2018-02-06T15:34:51.453Z,65.47
2018-02-06T15:35:51.426Z,65.66
2018-02-06T15:36:51.403Z,66.03
2018-02-06T15:37:51.366Z,66.13
2018-02-06T15:38:51.345Z,65.94
2018-02-06T15:39:57.865Z,65.94
2018-02-06T15:40:51.285Z,66.22
2018-02-06T15:41:51.290Z,66.13
2018-02-06T15:42:51.241Z,66.03
2018-02-06T15:43:51.204Z,66.13
2018-02-06T15:44:51.177Z,66.03
2018-02-06T15:45:51.165Z,66.03
2018-02-06T15:46:51.125Z,66.13
2018-02-06T15:47:51.098Z,66.31
2018-02-06T15:48:51.069Z,66.60
2018-02-06T15:49:51.040Z,66.03
2018-02-06T15:50:51.012Z,66.22
2018-02-06T15:51:50.990Z,66.88
2018-02-06T15:52:50.959Z,66.60
2018-02-06T15:53:50.932Z,66.50
2018-02-06T15:54:50.911Z,66.60
2018-02-06T15:55:50.875Z,66.98
2018-02-06T15:56:50.849Z,67.45
2018-02-06T15:57:50.832Z,67.07
2018-02-06T15:58:50.794Z,67.26
2018-02-06T15:59:50.774Z,67.36